Aérodrome :
LOGIN :

S'inscrire | Disclaimer

   EN    FR    IT 

 










Légende :    VFR   VFR Marginal   IFR   IFR Intensif   IFR Très Intensif
Visi : 
Plafond : 
>= 8 km
>= 3000ft
5 à 8 km
1000 à 3000 ft
1500m à 5 km
500 à 1000 ft
800 à 1500m
200 à 500 ft
< 800m
< 200 ft
Symboles :   Orages  Brouillard  Fortes neiges  Fortes précipitations  Vent > 20 kt
SIGMETs :   Divers  Orages  Givrage  Turbulence  Onde Orograph.  Cendres Volcan.







- Altitude de l'aérodrome : 147 ft
- Code IATA : DUS


EDDL - Düsseldorf Int.

DERNIER METAR :
  • 181520Z 29012KT 9999 VCSH FEW038TCU 09/M01 Q1019 TEMPO 29015G25KT

METARs EXPIRÉS :
  • 181450Z 31014KT 9999 VCSH FEW036TCU SCT046 09/M00 Q1019 TEMPO 29015G25KT
  • 181420Z 29013KT 250V320 9999 VCSH FEW034TCU 09/00 Q1019 NOSIG
  • 181350Z 27010KT 230V310 9999 FEW034 09/01 Q1019 NOSIG
  • 181320Z 28009KT 9999 VCSH FEW027 FEW032CB 08/00 Q1019 NOSIG
  • 181250Z 28016KT 9999 -SHRA FEW032CB SCT046 08/01 Q1018 NOSIG

TAF TAF EDDL
Valide du 18 à 12h jusqu'au 19 à 18h UTC


181100Z 1812/1918 29011KT 9999 SCT030
PROB30
TEMPO 1812/1815 29015G25KT
BECMG 1816/1819 29005KT
BECMG 1819/1822 VRB03KT
BECMG 1907/1910 20005KT
TEMPO 1911/1916 26005KT
Pas de NOTAMs connus pour ce terrain.



MET'MAP, la Météo Aéronautique d'un coup d'oeil ! - Copyright ORBIFLY Décembre 2007 - Disclaimer

ORBIFLY MET'MAP TEAM :

Programmation & Développement : Alexandra Zaïnal
Conception & Développement : Baudouin d'Aumeries
Co-Programmation & Développement : Marc-Olivier Méhu
Soutien technique & logistique : Manuel Goepfert

Contact : metmap@orbifly.com




SOURCES & CREDITS :

   NOAA